首页
METAR-TAF:

METAR-TAF

机场 :

哥伦比亚, 南卡罗来纳州, 美国

纬度: 33-56-31N, 经度: 081-07-05W, 海拔: 71米

当前天气观测

该预报发布于23分钟前的15:56 UTC
风速5节,风向南转南东
温度 31°C
湿度 66%
气压 1018 hPa
能見度: 16.1公里
散云层高于2800英尺
多云层高于13000英尺
多云层高于25000英尺

METAR: KCAE 161556Z 15005KT 10SM SCT028 BKN130 BKN250 31/24 A3006 RMK AO2 SLP174 T03110239

时间: 12:19 (16:19 UTC)

预报

该预报发布于1小时和39分钟前的14:40 UTC
预报有效从16日的 15点(UTC)到 17日的 12点(UTC)
风速7节,风向
能見度: 10公里
多云层高于12000英尺
从 16日的 2000点(UTC)
风速6节,风向
能見度: 10公里
阴天层高于5000英尺
附近有阵雨
从 17日的 0500点(UTC)
风速3节,风向多变
能見度: 10公里
多云层高于15000英尺

TAF: KCAE 161440Z 1615/1712 17007KT P6SM BKN120 FM162000 19006KT P6SM VCSH OVC050 FM170500 VRB03KT P6SM BKN150

超过4000个机场的气象观测和天气预报(METAR&TAF报告)。

可查询的气象台以黄色和红色小点在地图上表示。

将鼠标移到小点上方,可查看气象台名称。

然后点击查看天气观测和预报。

如需切换地图:点击带黑十字的绿色按钮放大地图;点击带横线的绿色按钮缩小地图;或者点击绿色箭头查看邻近地区的地图。


METAR-TAF: